Time;durP1;ratioP1;P1;durP2;ratioP2;P2;SDS_P1;SDS_P2;PMS_P1;PMS_P2;Temp;Humidity;BMP_temperature;BMP_pressure;BME280_temperature;BME280_humidity;BME280_pressure;Samples;Min_cycle;Max_cycle;Signal;HPM_P1;HPM_P2
2022/02/28 00:02:28;;;;;;;2.03;1.00;;;1.30;99.90;;;;;;4981442;28;20080;-67
2022/02/28 00:04:55;;;;;;;2.88;0.85;;;1.30;99.90;;;;;;4985226;28;20047;-66
2022/02/28 00:07:22;;;;;;;4.03;1.95;;;1.30;99.90;;;;;;4983872;28;20136;-65
2022/02/28 00:09:49;;;;;;;2.17;1.02;;;1.30;99.90;;;;;;5006515;28;20796;-67
2022/02/28 00:12:16;;;;;;;2.58;1.52;;;1.30;99.90;;;;;;5003847;28;20045;-66
2022/02/28 00:14:43;;;;;;;2.15;0.82;;;1.30;99.90;;;;;;5004846;28;20053;-66
2022/02/28 00:17:10;;;;;;;2.97;0.90;;;1.30;99.90;;;;;;4986319;28;20096;-68
2022/02/28 00:19:37;;;;;;;3.25;1.73;;;1.30;99.90;;;;;;4985088;28;20073;-70
2022/02/28 00:22:04;;;;;;;1.35;1.08;;;1.30;99.90;;;;;;4985593;28;20062;-66
2022/02/28 00:24:31;;;;;;;3.80;1.55;;;1.40;99.90;;;;;;4984649;28;20405;-63
2022/02/28 00:26:58;;;;;;;4.85;1.33;;;1.40;99.90;;;;;;4985851;28;20512;-63
2022/02/28 00:29:25;;;;;;;3.30;1.50;;;1.40;99.90;;;;;;4981744;28;20047;-65
2022/02/28 00:31:52;;;;;;;4.60;2.30;;;1.40;99.90;;;;;;4985661;28;20408;-65
2022/02/28 00:34:20;;;;;;;1.75;1.38;;;1.40;99.90;;;;;;4983652;28;20128;-62
2022/02/28 00:36:48;;;;;;;2.15;1.10;;;1.40;99.90;;;;;;4997745;28;20046;-63
2022/02/28 00:39:14;;;;;;;1.15;0.85;;;1.40;99.90;;;;;;5002196;28;21226;-65
2022/02/28 00:41:42;;;;;;;2.90;1.00;;;1.40;99.90;;;;;;5016629;28;20077;-64
2022/02/28 00:44:09;;;;;;;0.75;0.75;;;1.30;99.90;;;;;;4993228;28;20057;-66
2022/02/28 00:46:40;;;;;;;3.83;1.17;;;1.30;99.90;;;;;;5004327;28;20050;-64
2022/02/28 00:49:07;;;;;;;2.17;1.40;;;1.30;99.90;;;;;;4989564;28;20386;-66
2022/02/28 00:51:34;;;;;;;3.10;1.20;;;1.30;99.90;;;;;;5016932;28;20137;-66
2022/02/28 00:54:02;;;;;;;1.67;0.80;;;1.20;99.90;;;;;;4984997;28;20648;-64
2022/02/28 00:56:29;;;;;;;2.60;1.10;;;1.20;99.90;;;;;;4984043;28;20073;-62
2022/02/28 00:58:57;;;;;;;1.60;0.73;;;1.20;99.90;;;;;;4984456;28;20050;-67
2022/02/28 01:01:23;;;;;;;2.10;1.13;;;1.20;99.90;;;;;;4982385;28;20054;-65
2022/02/28 01:03:51;;;;;;;1.85;0.93;;;1.20;99.90;;;;;;4985588;28;20381;-63
2022/02/28 01:06:18;;;;;;;2.05;1.02;;;1.10;99.90;;;;;;4984054;28;20138;-69
2022/02/28 01:08:45;;;;;;;3.15;0.88;;;1.10;99.90;;;;;;5016244;28;20050;-68
2022/02/28 01:11:12;;;;;;;2.63;0.77;;;1.00;99.90;;;;;;4983918;28;20133;-65
2022/02/28 01:13:39;;;;;;;3.33;0.82;;;0.90;99.90;;;;;;5002084;28;20049;-66
2022/02/28 01:16:06;;;;;;;5.50;1.38;;;0.90;99.90;;;;;;5003212;28;20167;-64
2022/02/28 01:18:33;;;;;;;1.88;1.17;;;0.80;99.90;;;;;;4989795;28;20050;-66
2022/02/28 01:21:00;;;;;;;5.18;1.45;;;0.80;99.90;;;;;;4998738;28;20096;-68
2022/02/28 01:23:26;;;;;;;3.03;0.98;;;0.70;99.90;;;;;;4999895;28;20073;-65
2022/02/28 01:25:53;;;;;;;4.70;1.40;;;0.80;99.90;;;;;;5004740;28;20053;-67
2022/02/28 01:28:20;;;;;;;2.65;1.40;;;0.80;99.90;;;;;;4997965;28;20453;-65
2022/02/28 01:30:48;;;;;;;4.15;1.58;;;0.80;99.90;;;;;;5016298;28;20057;-66
2022/02/28 01:33:15;;;;;;;3.50;1.73;;;0.80;99.90;;;;;;5002082;28;20041;-63
2022/02/28 01:35:42;;;;;;;3.03;1.00;;;0.80;99.90;;;;;;5005404;28;20066;-67
2022/02/28 01:38:09;;;;;;;3.95;1.00;;;0.80;99.90;;;;;;5003382;28;20747;-71
2022/02/28 01:40:37;;;;;;;2.40;0.80;;;0.80;99.90;;;;;;5002940;28;20531;-64
2022/02/28 01:43:04;;;;;;;4.38;1.17;;;0.80;99.90;;;;;;4951936;28;20042;-63
2022/02/28 01:45:44;;;;;;;1.37;0.78;;;0.70;99.90;;;;;;3092293;28;10003197;-63
2022/02/28 01:48:11;;;;;;;2.15;1.10;;;0.80;99.90;;;;;;3260510;28;10002026;-63
2022/02/28 01:50:38;;;;;;;3.88;1.38;;;0.70;99.90;;;;;;4982672;28;20054;-66
2022/02/28 01:53:05;;;;;;;2.15;1.60;;;0.60;99.90;;;;;;4998624;28;20605;-66
2022/02/28 01:55:32;;;;;;;2.28;1.50;;;0.50;99.90;;;;;;4983168;28;20129;-64
2022/02/28 01:58:00;;;;;;;1.52;0.82;;;0.50;99.90;;;;;;4980857;28;20473;-64
2022/02/28 02:00:30;;;;;;;5.10;1.55;;;0.40;99.90;;;;;;4982843;28;20908;-66
2022/02/28 02:02:57;;;;;;;;;;;0.30;99.90;;;;;;5013992;28;20093;-64
2022/02/28 02:05:24;;;;;;;2.92;1.13;;;0.30;99.90;;;;;;4981105;28;20451;-66
2022/02/28 02:07:51;;;;;;;3.05;0.95;;;0.20;99.90;;;;;;4997769;28;20436;-65
2022/02/28 02:10:18;;;;;;;3.95;0.68;;;0.10;99.90;;;;;;4990714;28;20061;-65
2022/02/28 02:12:47;;;;;;;2.78;0.95;;;0.10;99.90;;;;;;4989831;28;20128;-64
2022/02/28 02:15:16;;;;;;;2.63;1.10;;;0.00;99.90;;;;;;4977826;28;20568;-65
2022/02/28 02:17:44;;;;;;;4.07;0.70;;;0.00;99.90;;;;;;4982171;28;20144;-64
2022/02/28 02:20:32;;;;;;;4.65;1.15;;;0.00;99.90;;;;;;4981103;28;20046;-69
2022/02/28 02:23:02;;;;;;;1.75;0.88;;;-0.10;99.90;;;;;;4979056;28;20054;-66
2022/02/28 02:25:29;;;;;;;1.40;1.23;;;-0.10;99.90;;;;;;4983707;28;20157;-63
2022/02/28 02:27:57;;;;;;;1.77;1.10;;;-0.10;99.90;;;;;;5001379;28;20448;-65
2022/02/28 02:30:24;;;;;;;2.08;1.33;;;-0.20;99.90;;;;;;5017560;28;20084;-66
2022/02/28 02:32:53;;;;;;;2.38;0.90;;;-0.20;99.90;;;;;;5034910;28;20042;-63
2022/02/28 02:35:20;;;;;;;2.30;1.25;;;-0.30;99.90;;;;;;4984530;28;20043;-64
2022/02/28 02:37:47;;;;;;;2.17;1.52;;;-0.30;99.90;;;;;;4987359;28;20496;-69
2022/02/28 02:40:14;;;;;;;4.57;1.38;;;-0.30;99.90;;;;;;5035386;28;20120;-63
2022/02/28 02:42:41;;;;;;;4.88;1.73;;;-0.40;99.90;;;;;;5001047;28;20470;-64
2022/02/28 02:45:09;;;;;;;4.95;1.45;;;-0.40;99.90;;;;;;5001579;28;20066;-69
2022/02/28 02:47:37;;;;;;;4.30;1.95;;;-0.30;99.90;;;;;;5008469;28;20049;-64
2022/02/28 02:50:09;;;;;;;1.20;0.90;;;-0.30;99.90;;;;;;4990944;28;20129;-68
2022/02/28 02:52:36;;;;;;;2.20;1.30;;;-0.30;99.90;;;;;;4988869;28;20042;-64
2022/02/28 02:55:05;;;;;;;8.82;3.00;;;-0.30;99.90;;;;;;4986532;28;20046;-62
2022/02/28 02:57:33;;;;;;;7.78;3.33;;;-0.40;99.90;;;;;;5000794;28;20135;-63
2022/02/28 03:00:13;;;;;;;4.40;2.33;;;-0.40;99.90;;;;;;5038586;28;20423;-63
2022/02/28 03:02:57;;;;;;;3.88;2.63;;;-0.50;99.90;;;;;;5037221;28;20046;-64
2022/02/28 03:05:25;;;;;;;2.10;1.55;;;-0.50;99.90;;;;;;5004241;28;20053;-64
2022/02/28 03:07:52;;;;;;;5.57;1.48;;;-0.50;99.90;;;;;;5035382;28;20321;-66
2022/02/28 03:10:22;;;;;;;1.75;1.20;;;-0.60;99.90;;;;;;5011610;28;20065;-70
2022/02/28 03:12:50;;;;;;;2.20;1.27;;;-0.60;99.90;;;;;;5019654;28;20056;-66
2022/02/28 03:15:17;;;;;;;2.35;1.20;;;-0.60;99.90;;;;;;4989768;28;20069;-68
2022/02/28 03:17:44;;;;;;;3.47;1.90;;;-0.60;99.90;;;;;;4983596;28;20112;-65
2022/02/28 03:20:12;;;;;;;5.65;2.05;;;-0.60;99.90;;;;;;4985030;28;20046;-65
2022/02/28 03:22:39;;;;;;;2.67;1.52;;;-0.50;99.90;;;;;;4985760;28;20093;-66
2022/02/28 03:25:06;;;;;;;4.55;1.60;;;-0.50;99.90;;;;;;4986962;28;20042;-66
2022/02/28 03:27:40;;;;;;;2.33;1.23;;;-0.50;99.90;;;;;;5031880;28;20062;-66
2022/02/28 03:30:08;;;;;;;2.08;1.63;;;-0.50;99.90;;;;;;5009988;28;20050;-64
2022/02/28 03:32:36;;;;;;;3.42;1.30;;;-0.50;99.90;;;;;;5015844;28;20141;-66
2022/02/28 03:35:05;;;;;;;3.70;1.15;;;-0.50;99.90;;;;;;4980191;28;20090;-66
2022/02/28 03:37:35;;;;;;;4.28;1.77;;;-0.60;99.90;;;;;;4989764;28;20141;-66
2022/02/28 03:40:06;;;;;;;3.20;1.00;;;-0.60;99.90;;;;;;4983129;28;20117;-64
2022/02/28 03:42:33;;;;;;;3.20;1.27;;;-0.60;99.90;;;;;;4978423;28;21365;-62
2022/02/28 03:45:11;;;;;;;4.55;1.40;;;-0.60;99.90;;;;;;4230147;28;10001517;-65
2022/02/28 03:47:38;;;;;;;3.10;1.55;;;-0.70;99.90;;;;;;2064050;28;10001834;-65
2022/02/28 03:50:34;;;;;;;7.57;1.90;;;-0.80;99.90;;;;;;4984710;28;20074;-63
2022/02/28 03:53:01;;;;;;;3.40;1.85;;;-0.80;99.90;;;;;;5004139;28;20439;-62
2022/02/28 03:55:30;;;;;;;5.22;1.60;;;-0.80;99.90;;;;;;5017297;28;20054;-63
2022/02/28 03:57:57;;;;;;;1.92;1.52;;;-0.80;99.90;;;;;;4968849;28;20581;-71
2022/02/28 04:00:29;;;;;;;3.15;1.83;;;-0.70;99.90;;;;;;4984810;28;20061;-64
2022/02/28 04:02:56;;;;;;;8.55;1.75;;;-0.70;99.90;;;;;;5015731;28;20647;-69
2022/02/28 04:05:24;;;;;;;2.10;1.77;;;-0.70;99.90;;;;;;4999444;28;20046;-62
2022/02/28 04:07:51;;;;;;;4.07;2.08;;;-0.70;99.90;;;;;;4983861;28;20081;-61
2022/02/28 04:10:19;;;;;;;2.28;1.65;;;-0.80;99.90;;;;;;4983303;28;20058;-66
2022/02/28 04:12:46;;;;;;;3.30;1.60;;;-0.70;99.90;;;;;;5015026;28;20046;-66
2022/02/28 04:15:13;;;;;;;4.43;2.15;;;-0.70;99.90;;;;;;4984990;28;20697;-64
2022/02/28 04:17:42;;;;;;;3.53;2.00;;;-0.70;99.90;;;;;;4980765;28;20607;-66
2022/02/28 04:20:39;;;;;;;6.47;2.63;;;-0.60;99.90;;;;;;4999922;28;20053;-66
2022/02/28 04:23:06;;;;;;;3.95;1.67;;;-0.60;99.90;;;;;;4974095;28;20053;-65
2022/02/28 04:25:33;;;;;;;8.15;2.88;;;-0.60;99.90;;;;;;4983751;28;20050;-64
2022/02/28 04:28:01;;;;;;;6.15;1.80;;;-0.50;99.90;;;;;;5017157;28;20124;-62
2022/02/28 04:30:28;;;;;;;6.07;2.28;;;-0.50;99.90;;;;;;4993057;28;20046;-63
2022/02/28 04:32:55;;;;;;;7.65;2.40;;;-0.60;99.90;;;;;;5023510;28;20409;-62
2022/02/28 04:35:22;;;;;;;5.53;1.98;;;-0.60;99.90;;;;;;4981740;28;20505;-65
2022/02/28 04:38:03;;;;;;;9.02;2.60;;;-0.50;99.90;;;;;;4983844;28;20144;-66
2022/02/28 04:40:30;;;;;;;6.78;2.55;;;-0.50;99.90;;;;;;4982908;28;20050;-63
2022/02/28 04:42:57;;;;;;;5.80;2.20;;;-0.50;99.90;;;;;;4983612;28;20053;-65
2022/02/28 04:45:24;;;;;;;5.60;2.25;;;-0.50;99.90;;;;;;4982139;28;20057;-69
2022/02/28 04:47:53;;;;;;;8.63;3.08;;;-0.50;99.90;;;;;;4983477;28;20145;-62
2022/02/28 04:50:38;;;;;;;6.45;2.60;;;-0.50;99.90;;;;;;4984826;28;20061;-66
2022/02/28 04:53:06;;;;;;;5.10;2.13;;;-0.50;99.90;;;;;;4983325;28;20077;-63
2022/02/28 04:55:35;;;;;;;3.65;1.52;;;-0.60;99.90;;;;;;4980329;28;20493;-66
2022/02/28 04:58:02;;;;;;;2.00;1.63;;;-0.70;99.90;;;;;;4981819;28;20043;-62
2022/02/28 05:00:47;;;;;;;5.68;1.73;;;-0.70;99.90;;;;;;4982706;28;20958;-68
2022/02/28 05:03:16;;;;;;;6.68;2.40;;;-0.80;99.90;;;;;;4979953;28;20093;-64
2022/02/28 05:05:44;;;;;;;5.32;2.67;;;-0.90;99.90;;;;;;4982954;28;20121;-65
2022/02/28 05:08:11;;;;;;;5.93;2.70;;;-1.00;99.90;;;;;;4998756;28;20046;-69
2022/02/28 05:10:38;;;;;;;4.03;2.30;;;-1.10;99.90;;;;;;4998549;28;20060;-63
2022/02/28 05:13:17;;;;;;;4.32;1.90;;;-1.20;99.90;;;;;;4978676;28;20362;-64
2022/02/28 05:15:44;;;;;;;6.05;3.20;;;-1.20;99.90;;;;;;5014018;28;20125;-63
2022/02/28 05:18:13;;;;;;;8.90;2.83;;;-1.20;99.90;;;;;;4996110;28;20069;-65
2022/02/28 05:20:40;;;;;;;4.38;2.42;;;-1.20;99.90;;;;;;4983584;28;20050;-71
2022/02/28 05:23:07;;;;;;;5.18;2.97;;;-1.20;99.90;;;;;;4998280;28;20046;-67
2022/02/28 05:25:35;;;;;;;13.93;3.25;;;-1.30;99.90;;;;;;4980822;28;20109;-64
2022/02/28 05:28:23;;;;;;;4.28;2.03;;;-1.30;99.90;;;;;;4979005;28;20074;-68
2022/02/28 05:30:51;;;;;;;4.80;2.47;;;-1.30;99.90;;;;;;4981691;28;20050;-62
2022/02/28 05:33:19;;;;;;;6.53;2.38;;;-1.30;99.90;;;;;;4980448;28;20077;-70
2022/02/28 05:35:52;;;;;;;10.00;2.75;;;-1.30;99.90;;;;;;4992373;28;20073;-63
2022/02/28 05:38:27;;;;;;;4.43;2.75;;;-1.40;99.90;;;;;;5001146;28;20373;-63
2022/02/28 05:40:59;;;;;;;8.38;2.97;;;-1.40;99.90;;;;;;4986112;28;20070;-66
2022/02/28 05:43:32;;;;;;;9.88;3.67;;;-1.40;99.90;;;;;;4890875;28;21937;-62
2022/02/28 05:46:04;;;;;;;6.18;3.68;;;-1.40;99.90;;;;;;313731;28;10023389;-69
2022/02/28 05:48:46;;;;;;;6.80;4.82;;;-1.30;99.90;;;;;;4984432;28;20489;-62
2022/02/28 05:51:18;;;;;;;10.85;5.82;;;-1.40;99.90;;;;;;5008984;28;20089;-63
2022/02/28 05:53:45;;;;;;;9.95;4.05;;;-1.40;99.90;;;;;;4983373;28;20049;-65
2022/02/28 05:56:12;;;;;;;7.28;3.95;;;-1.40;99.90;;;;;;4983894;28;20149;-66
2022/02/28 05:58:39;;;;;;;12.13;5.10;;;-1.40;99.90;;;;;;4994600;28;20084;-68
2022/02/28 06:01:06;;;;;;;8.30;4.32;;;-1.30;99.90;;;;;;5003142;28;20133;-66
2022/02/28 06:03:33;;;;;;;9.95;4.47;;;-1.30;99.90;;;;;;5000497;28;20111;-65
2022/02/28 06:06:04;;;;;;;;;;;-1.20;99.90;;;;;;4997000;28;20074;-63
2022/02/28 06:08:30;;;;;;;6.07;4.90;;;-1.20;99.90;;;;;;4981828;28;19968;-63
2022/02/28 06:10:57;;;;;;;10.07;4.63;;;-1.10;99.90;;;;;;4996670;28;20046;-63
2022/02/28 06:13:24;;;;;;;11.18;7.25;;;-1.00;99.90;;;;;;4981759;28;20566;-66
2022/02/28 06:15:51;;;;;;;8.15;4.20;;;-0.90;99.90;;;;;;4983422;28;20089;-64
2022/02/28 06:18:18;;;;;;;6.28;3.67;;;-0.80;99.90;;;;;;4981705;28;20060;-65
2022/02/28 06:20:45;;;;;;;8.35;4.47;;;-0.70;99.90;;;;;;4983981;28;20137;-63
2022/02/28 06:23:15;;;;;;;10.57;4.93;;;-0.70;99.90;;;;;;4982897;28;20415;-63
2022/02/28 06:25:45;;;;;;;12.68;5.30;;;-0.60;99.90;;;;;;5001643;28;20388;-64
2022/02/28 06:28:13;;;;;;;;;;;-0.60;99.90;;;;;;5002243;28;20046;-64
2022/02/28 06:30:40;;;;;;;8.15;4.10;;;-0.50;99.90;;;;;;5002768;28;19929;-66
2022/02/28 06:33:08;;;;;;;14.57;4.00;;;-0.40;99.90;;;;;;5001438;28;20057;-68
2022/02/28 06:35:37;;;;;;;7.55;3.60;;;-0.40;99.90;;;;;;5013751;28;20097;-65
2022/02/28 06:38:05;;;;;;;11.13;3.47;;;-0.40;99.90;;;;;;4982324;28;20054;-65
2022/02/28 06:40:32;;;;;;;9.40;4.20;;;-0.30;99.90;;;;;;4984806;28;20122;-65
2022/02/28 06:42:59;;;;;;;9.38;4.78;;;-0.30;99.90;;;;;;4995502;28;20750;-64
2022/02/28 06:45:26;;;;;;;15.82;5.30;;;-0.30;99.90;;;;;;5000888;28;20118;-69
2022/02/28 06:47:52;;;;;;;8.73;4.00;;;-0.20;99.90;;;;;;5002547;28;20135;-64
2022/02/28 06:50:21;;;;;;;4.80;3.90;;;-0.20;99.90;;;;;;5002676;28;20223;-64
2022/02/28 06:52:47;;;;;;;6.95;4.28;;;-0.20;99.90;;;;;;5002580;28;20196;-63
2022/02/28 06:55:14;;;;;;;6.88;3.53;;;-0.10;99.90;;;;;;4999156;28;20153;-68
2022/02/28 06:57:41;;;;;;;4.38;2.97;;;0.00;99.90;;;;;;4999417;28;20092;-64
2022/02/28 07:00:09;;;;;;;10.63;3.72;;;0.00;99.90;;;;;;4979778;28;20148;-68
2022/02/28 07:02:56;;;;;;;5.63;3.17;;;0.10;99.90;;;;;;4982743;28;20050;-63
2022/02/28 07:05:23;;;;;;;11.93;4.28;;;0.10;99.90;;;;;;4979912;28;20054;-66
2022/02/28 07:07:50;;;;;;;8.23;4.18;;;0.20;99.90;;;;;;4983402;28;20740;-65
2022/02/28 07:10:17;;;;;;;18.38;4.15;;;0.20;99.90;;;;;;4989621;28;20066;-65
2022/02/28 07:12:44;;;;;;;6.93;4.05;;;0.30;99.90;;;;;;5002888;28;20499;-62
2022/02/28 07:15:11;;;;;;;11.60;4.32;;;0.30;99.90;;;;;;5001186;28;20140;-63
2022/02/28 07:17:38;;;;;;;7.53;3.40;;;0.40;99.90;;;;;;4999875;28;20204;-65
2022/02/28 07:20:08;;;;;;;9.45;3.80;;;0.40;99.90;;;;;;5002472;28;20532;-66
2022/02/28 07:22:35;;;;;;;3.28;2.80;;;0.50;99.90;;;;;;5002261;28;20091;-63
2022/02/28 07:25:03;;;;;;;6.50;2.50;;;0.50;99.90;;;;;;5002841;28;20134;-66
2022/02/28 07:27:30;;;;;;;3.85;2.08;;;0.60;99.90;;;;;;4995896;28;20667;-62
2022/02/28 07:29:57;;;;;;;8.60;3.38;;;0.60;99.90;;;;;;5002898;28;20452;-63
2022/02/28 07:32:23;;;;;;;7.60;3.28;;;0.60;99.90;;;;;;5001081;28;20072;-65
2022/02/28 07:34:50;;;;;;;3.40;2.40;;;0.70;99.90;;;;;;5003402;28;20054;-62
2022/02/28 07:37:17;;;;;;;9.48;3.63;;;0.70;99.90;;;;;;4998659;28;20133;-64
2022/02/28 07:39:44;;;;;;;6.03;2.85;;;0.80;99.90;;;;;;5003031;28;20676;-62
2022/02/28 07:42:16;;;;;;;7.28;2.75;;;0.80;99.90;;;;;;5003383;28;20065;-67
2022/02/28 07:44:43;;;;;;;4.88;2.20;;;0.90;99.90;;;;;;5006017;28;20061;-66
2022/02/28 07:47:10;;;;;;;3.40;1.95;;;0.90;99.90;;;;;;3492670;28;10020752;-64
2022/02/28 07:49:39;;;;;;;6.60;2.55;;;0.90;99.90;;;;;;2415133;28;10001960;-65
2022/02/28 07:52:06;;;;;;;4.95;1.90;;;1.00;99.90;;;;;;5004579;28;20112;-68
2022/02/28 07:54:34;;;;;;;3.58;1.63;;;1.10;99.90;;;;;;5004833;28;20145;-62
2022/02/28 07:57:00;;;;;;;2.85;1.75;;;1.10;99.90;;;;;;5004316;28;20057;-62
2022/02/28 07:59:27;;;;;;;2.72;1.80;;;1.20;99.90;;;;;;5003312;28;20140;-66
2022/02/28 08:01:54;;;;;;;4.45;2.10;;;1.20;99.90;;;;;;5004610;28;20081;-63
2022/02/28 08:04:21;;;;;;;3.30;2.22;;;1.30;99.90;;;;;;5005330;28;20391;-64
2022/02/28 08:06:48;;;;;;;4.88;1.40;;;1.40;99.90;;;;;;5004610;28;20046;-68
2022/02/28 08:09:16;;;;;;;7.95;2.30;;;1.40;99.90;;;;;;5003331;28;20156;-65
2022/02/28 08:11:46;;;;;;;6.80;1.67;;;1.60;99.90;;;;;;5000857;28;20046;-64
2022/02/28 08:14:13;;;;;;;2.08;1.00;;;1.60;99.90;;;;;;4983883;28;21360;-66
2022/02/28 08:16:41;;;;;;;1.88;1.00;;;1.70;99.90;;;;;;4997880;28;20050;-66
2022/02/28 08:19:08;;;;;;;3.42;1.20;;;1.80;99.90;;;;;;5003778;28;20149;-66
2022/02/28 08:21:35;;;;;;;1.60;0.90;;;1.90;99.90;;;;;;5002641;28;20050;-65
2022/02/28 08:24:02;;;;;;;3.45;1.52;;;2.00;99.90;;;;;;5003985;28;20046;-62
2022/02/28 08:26:29;;;;;;;4.70;1.40;;;2.10;99.90;;;;;;5005261;28;20252;-64
2022/02/28 08:28:56;;;;;;;5.22;2.03;;;2.10;99.90;;;;;;5003570;28;20105;-66
2022/02/28 08:31:23;;;;;;;1.27;1.00;;;2.20;99.90;;;;;;5002553;28;20076;-64
2022/02/28 08:33:50;;;;;;;3.53;1.92;;;2.30;99.90;;;;;;4983131;28;20133;-62
2022/02/28 08:36:17;;;;;;;4.00;1.23;;;2.40;99.90;;;;;;4985448;28;20133;-65
2022/02/28 08:38:44;;;;;;;5.63;1.45;;;2.50;99.90;;;;;;4984252;28;20100;-63
2022/02/28 08:41:11;;;;;;;1.92;1.30;;;2.50;99.90;;;;;;4984720;28;20839;-66
2022/02/28 08:43:38;;;;;;;3.00;1.58;;;2.50;99.90;;;;;;5001759;28;20447;-67
2022/02/28 08:46:05;;;;;;;2.65;1.40;;;2.60;99.90;;;;;;5003556;28;20136;-65
2022/02/28 08:48:32;;;;;;;6.85;1.33;;;2.60;99.90;;;;;;4992194;28;20046;-64
2022/02/28 08:50:59;;;;;;;6.35;1.38;;;2.70;99.90;;;;;;4997194;28;20046;-66
2022/02/28 08:53:26;;;;;;;1.95;1.08;;;2.70;99.90;;;;;;5002480;28;20117;-64
2022/02/28 08:55:53;;;;;;;4.35;1.50;;;2.70;99.90;;;;;;5003200;28;20127;-62
2022/02/28 08:58:23;;;;;;;3.92;0.90;;;2.80;99.90;;;;;;4995379;28;20046;-66
2022/02/28 09:00:50;;;;;;;4.47;0.68;;;2.80;99.90;;;;;;4984061;28;20058;-63
2022/02/28 09:03:17;;;;;;;7.90;1.20;;;2.80;99.90;;;;;;4983442;28;20405;-63
2022/02/28 09:05:44;;;;;;;3.47;1.20;;;2.80;99.90;;;;;;4983244;28;20046;-66
2022/02/28 09:08:11;;;;;;;4.78;1.45;;;2.80;99.90;;;;;;4985130;28;20042;-65
2022/02/28 09:10:38;;;;;;;2.35;1.20;;;2.80;99.90;;;;;;4983690;28;20057;-63
2022/02/28 09:13:06;;;;;;;4.40;1.00;;;2.80;99.90;;;;;;4982875;28;20073;-64
2022/02/28 09:15:35;;;;;;;4.07;1.15;;;2.80;99.90;;;;;;4982390;28;20054;-64
2022/02/28 09:18:03;;;;;;;2.17;1.35;;;2.90;99.90;;;;;;4983702;28;20072;-66
2022/02/28 09:20:30;;;;;;;7.90;1.73;;;2.90;99.90;;;;;;4984688;28;20343;-62
2022/02/28 09:22:57;;;;;;;9.70;1.33;;;3.00;99.90;;;;;;4983183;28;20406;-63
2022/02/28 09:25:24;;;;;;;4.60;1.63;;;3.00;99.90;;;;;;4983547;28;20049;-63
2022/02/28 09:27:51;;;;;;;7.75;1.98;;;3.00;99.90;;;;;;4980794;28;20508;-64
2022/02/28 09:30:20;;;;;;;7.57;2.33;;;3.00;99.90;;;;;;4984877;28;20093;-64
2022/02/28 09:32:53;;;;;;;4.40;1.17;;;3.00;99.90;;;;;;4981579;28;20042;-64
2022/02/28 09:35:20;;;;;;;12.65;1.52;;;3.00;99.90;;;;;;4982439;28;20445;-65
2022/02/28 09:37:47;;;;;;;5.30;1.58;;;3.10;99.90;;;;;;4982653;28;20073;-65
2022/02/28 09:40:14;;;;;;;7.78;1.77;;;3.10;99.90;;;;;;4985513;28;20054;-66
2022/02/28 09:43:01;;;;;;;6.00;1.58;;;3.10;99.90;;;;;;4982793;28;20160;-62
2022/02/28 09:45:47;;;;;;;5.40;1.58;;;3.10;99.90;;;;;;4915377;28;20117;-63
2022/02/28 09:48:54;;;;;;;1.37;0.77;;;3.10;99.90;;;;;;2335504;28;10024484;-66
2022/02/28 09:51:41;;;;;;;10.25;1.50;;;3.20;99.90;;;;;;3605787;28;10001327;-68
2022/02/28 09:54:37;;;;;;;17.02;1.73;;;3.20;99.90;;;;;;4994860;28;20050;-63
2022/02/28 09:57:53;;;;;;;13.85;2.08;;;3.30;99.90;;;;;;4997567;28;20054;-62
2022/02/28 10:00:31;;;;;;;5.25;1.58;;;3.30;99.90;;;;;;4986885;28;20062;-66
2022/02/28 10:03:02;;;;;;;3.10;1.08;;;3.50;99.90;;;;;;5003477;28;20144;-63
2022/02/28 10:05:30;;;;;;;11.57;1.85;;;3.50;99.90;;;;;;5031248;28;20492;-65
2022/02/28 10:08:00;;;;;;;4.32;1.05;;;3.50;99.90;;;;;;5003791;28;20134;-63
2022/02/28 10:10:28;;;;;;;;;;;3.50;99.90;;;;;;5002332;28;20058;-65
2022/02/28 10:12:55;;;;;;;4.82;1.42;;;3.50;99.90;;;;;;4999227;28;20115;-64
2022/02/28 10:15:25;;;;;;;5.95;1.73;;;3.50;99.90;;;;;;4999519;28;20053;-68
2022/02/28 10:17:58;;;;;;;6.83;1.80;;;3.60;99.90;;;;;;5002914;28;20046;-62
2022/02/28 10:20:51;;;;;;;11.98;2.47;;;3.60;99.90;;;;;;5001678;28;20141;-67
2022/02/28 10:23:18;;;;;;;9.05;1.00;;;3.70;99.90;;;;;;4996058;28;20116;-64
2022/02/28 10:26:07;;;;;;;3.10;0.95;;;3.70;99.90;;;;;;5001619;28;20496;-65
2022/02/28 10:29:09;;;;;;;17.40;2.00;;;3.80;99.90;;;;;;5000083;28;20057;-64
2022/02/28 10:32:01;;;;;;;5.88;2.33;;;3.90;99.90;;;;;;4999703;28;20053;-65
2022/02/28 10:38:19;;;;;;;12.88;1.83;;;4.00;99.90;;;;;;4997844;28;20057;-62
2022/02/28 10:40:50;;;;;;;9.05;1.85;;;4.00;99.90;;;;;;4992534;28;20058;-64
2022/02/28 10:43:29;;;;;;;8.35;3.00;;;4.10;99.90;;;;;;4995965;28;20511;-63
2022/02/28 10:45:58;;;;;;;11.20;3.13;;;4.10;99.90;;;;;;5003404;28;20058;-62
2022/02/28 10:48:25;;;;;;;7.00;2.45;;;4.20;99.90;;;;;;5001863;28;20095;-63
2022/02/28 10:50:53;;;;;;;14.63;2.22;;;4.30;99.90;;;;;;4988037;28;20062;-65
2022/02/28 10:53:22;;;;;;;12.63;2.58;;;4.20;99.90;;;;;;5009449;28;20137;-64
2022/02/28 10:55:51;;;;;;;12.50;1.95;;;4.30;99.90;;;;;;4979768;28;20049;-64
2022/02/28 10:58:27;;;;;;;12.05;1.70;;;4.30;99.90;;;;;;5002625;28;20505;-62
2022/02/28 11:01:03;;;;;;;18.42;1.95;;;4.40;98.10;;;;;;5000657;28;20089;-63
2022/02/28 11:03:48;;;;;;;10.05;1.75;;;4.50;99.40;;;;;;5001035;28;20062;-64
2022/02/28 11:06:20;;;;;;;6.15;2.65;;;4.50;96.10;;;;;;5002487;28;20595;-62
2022/02/28 11:08:47;;;;;;;10.18;1.45;;;4.60;94.50;;;;;;5001419;28;20042;-62
2022/02/28 11:11:15;;;;;;;8.05;1.15;;;4.70;94.40;;;;;;5000295;28;20046;-65
2022/02/28 11:13:45;;;;;;;4.20;1.20;;;4.80;96.90;;;;;;5003305;28;20046;-66
2022/02/28 11:16:15;;;;;;;10.27;1.35;;;4.90;98.70;;;;;;5004784;28;20405;-64
2022/02/28 11:18:43;;;;;;;;;;;5.00;99.00;;;;;;5003819;28;20050;-65
2022/02/28 11:21:12;;;;;;;4.65;1.05;;;4.90;98.80;;;;;;5006513;28;19925;-63
2022/02/28 11:23:41;;;;;;;5.45;0.50;;;4.80;96.70;;;;;;4983534;28;20065;-68
2022/02/28 11:26:15;;;;;;;3.47;1.10;;;4.80;98.30;;;;;;4984824;28;20058;-69
2022/02/28 11:28:43;;;;;;;10.82;0.82;;;4.80;95.20;;;;;;4983888;28;20077;-65
2022/02/28 11:31:15;;;;;;;10.02;1.00;;;4.80;97.60;;;;;;4987459;28;20132;-64
2022/02/28 11:34:01;;;;;;;6.57;0.73;;;4.90;96.50;;;;;;5002482;28;20081;-67
2022/02/28 11:36:28;;;;;;;9.05;0.63;;;4.80;93.40;;;;;;5006362;28;20161;-64
2022/02/28 11:39:10;;;;;;;7.25;1.10;;;4.90;92.10;;;;;;5006577;28;20108;-64
2022/02/28 11:41:37;;;;;;;4.78;1.10;;;4.90;92.00;;;;;;5003713;28;20152;-64
2022/02/28 11:44:08;;;;;;;3.30;0.90;;;4.80;93.70;;;;;;4661504;28;10000544;-64
2022/02/28 11:46:40;;;;;;;2.70;0.70;;;4.90;94.70;;;;;;1372338;28;10002103;-64
2022/02/28 11:49:09;;;;;;;3.95;0.70;;;4.90;94.70;;;;;;4986959;28;20108;-67
2022/02/28 11:51:39;;;;;;;1.55;0.80;;;4.90;96.40;;;;;;4983179;28;20126;-65
2022/02/28 11:54:22;;;;;;;8.03;0.90;;;4.90;98.20;;;;;;4986422;28;20050;-63
2022/02/28 11:56:54;;;;;;;1.23;0.52;;;5.00;97.10;;;;;;4984487;28;20120;-64
2022/02/28 11:59:25;;;;;;;17.58;3.05;;;5.00;95.60;;;;;;4984544;28;20085;-64
2022/02/28 12:02:01;;;;;;;2.17;1.02;;;5.10;94.10;;;;;;4984247;28;20070;-68
2022/02/28 12:04:33;;;;;;;10.95;1.30;;;5.00;92.90;;;;;;4996464;28;20145;-65
2022/02/28 12:07:23;;;;;;;8.32;0.63;;;5.00;94.80;;;;;;5004601;28;20365;-62
2022/02/28 12:09:59;;;;;;;5.32;0.90;;;5.00;94.60;;;;;;5003914;28;20050;-63
2022/02/28 12:12:33;;;;;;;1.85;0.70;;;5.00;95.20;;;;;;5005859;28;20054;-63
2022/02/28 12:15:01;;;;;;;10.98;1.17;;;5.00;96.20;;;;;;5003385;28;20053;-64
2022/02/28 12:17:35;;;;;;;4.97;0.93;;;5.00;97.50;;;;;;5004010;28;20054;-63
2022/02/28 12:20:14;;;;;;;6.65;0.80;;;5.10;98.00;;;;;;5003694;28;20132;-65
2022/02/28 12:23:08;;;;;;;3.50;1.15;;;5.10;98.90;;;;;;5005482;28;20453;-64
2022/02/28 12:25:38;;;;;;;14.57;1.77;;;5.10;99.90;;;;;;5001083;28;20072;-66
2022/02/28 12:28:23;;;;;;;6.05;1.08;;;5.10;99.90;;;;;;5005314;28;20095;-62
2022/02/28 12:31:04;;;;;;;4.25;1.15;;;5.10;99.60;;;;;;5005159;28;20069;-61
2022/02/28 12:33:34;;;;;;;8.40;1.33;;;5.10;99.90;;;;;;4990604;28;20112;-65
2022/02/28 12:36:07;;;;;;;7.43;1.27;;;5.10;99.90;;;;;;4984564;28;20054;-65
2022/02/28 12:38:48;;;;;;;3.92;0.70;;;5.20;99.90;;;;;;4982014;28;20054;-63
2022/02/28 12:41:21;;;;;;;4.90;0.68;;;5.10;99.60;;;;;;4985314;28;20081;-68
2022/02/28 12:43:50;;;;;;;3.10;1.30;;;5.00;97.60;;;;;;4988521;28;20115;-62
2022/02/28 12:46:35;;;;;;;3.22;0.95;;;5.00;94.40;;;;;;5005764;28;20072;-63
2022/02/28 12:49:03;;;;;;;7.18;0.68;;;4.90;94.70;;;;;;5000536;28;20179;-71
2022/02/28 12:51:32;;;;;;;10.13;2.20;;;5.10;96.30;;;;;;4996468;28;20129;-65
2022/02/28 12:54:16;;;;;;;1.92;0.63;;;5.20;97.50;;;;;;4995796;28;20141;-64
2022/02/28 12:57:04;;;;;;;1.70;0.75;;;5.20;95.20;;;;;;4994912;28;20145;-66
2022/02/28 12:59:37;;;;;;;6.30;1.08;;;5.20;96.50;;;;;;5002450;28;20081;-67
2022/02/28 13:02:06;;;;;;;11.82;1.30;;;5.30;96.60;;;;;;4996233;28;20058;-68
2022/02/28 13:04:33;;;;;;;3.35;0.80;;;5.30;96.40;;;;;;4993602;28;20048;-64
2022/02/28 13:07:10;;;;;;;4.47;0.70;;;5.30;96.50;;;;;;5006754;28;20037;-62
2022/02/28 13:09:37;;;;;;;2.83;0.70;;;5.30;97.90;;;;;;5001508;28;20136;-64
2022/02/28 13:12:05;;;;;;;7.75;0.68;;;5.30;95.90;;;;;;5005472;28;20050;-64
2022/02/28 13:14:32;;;;;;;30.65;2.38;;;5.30;95.90;;;;;;5002635;28;20049;-64